• Join FlightAware (Why Join?)
  • Login
  • US Flag 
09:17PM EST


 

Airport Tracker/Info


-or-


 

Live Flight TrackerFlight Track Log ✈ SWA2966 ✈ 23-Apr-2013 ✈ KOAK - KONT

Flight Track Log - Related Links

Times and Time Zones

All times are in EDT time to prevent confusion due to time zone crossing. See the SWA2966 flight status page for this flight to view local times or setup timezone preferences in your user account.

Time Position Orientation Groundspeed Altitude Reporting Facility
EDT Latitude Longitude Course Direction KTS MPH feet Rate Location/Type
03:20PM 37.7333 -122.2500 293° West 157 181 1,500  Level Northern Cal TRACON
03:21PM 37.7556 -122.3172 293° West 215 247 5,500 3,720 Climbing Oakland Center
03:22PM 37.7006 -122.3583 211° Southwest 238 274 9,700 3,420 Climbing Oakland Center
03:23PM 37.6161 -122.3869 195° South 317 365 12,600 3,300 Climbing Oakland Center
03:24PM 37.5242 -122.3550 165° South 354 407 16,500 3,660 Climbing Oakland Center
03:25PM 37.4378 -122.2850 147° Southeast 377 434 20,200 3,240 Climbing Oakland Center
03:26PM 37.3706 -122.1761 128° Southeast 398 458 23,200 2,820 Climbing Oakland Center
03:27PM 37.2989 -122.0617 128° Southeast 414 476 26,000 2,820 Climbing Oakland Center
03:28PM 37.2083 -121.9183 128° Southeast 436 502 29,100 2,580 Climbing Oakland Center
03:29PM 37.1361 -121.8033 128° Southeast 448 516 31,300 2,160 Climbing Oakland Center
03:30PM 37.0500 -121.6708 129° Southeast 460 529 33,600 2,280 Climbing Oakland Center
03:31PM 36.9719 -121.5447 128° Southeast 460 529 36,000 2,040 Climbing Oakland Center
03:32PM 36.8939 -121.4225 129° Southeast 454 522 37,800 1,740 Climbing Oakland Center
03:33PM 36.8075 -121.2883 129° Southeast 454 522 39,600 1,380 Climbing Oakland Center
03:34PM 36.7278 -121.1675 129° Southeast 452 520 40,700 600 Climbing Oakland Center
03:35PM 36.6469 -121.0408 128° Southeast 463 533 40,900 120 Climbing Oakland Center
03:36PM 36.5669 -120.9164 129° Southeast 462 532 41,000  Climbing Oakland Center
03:37PM 36.4878 -120.7911 128° Southeast 461 531 41,000  Level Oakland Center
03:38PM 36.4069 -120.6706 130° Southeast 456 525 41,000  Level Oakland Center
03:39PM 36.3267 -120.5475 129° Southeast 458 527 41,000  Level Oakland Center
03:40PM 36.2461 -120.4225 129° Southeast 467 537 41,000  Level Oakland Center
03:41PM 36.1642 -120.3022 130° Southeast 456 525 41,000  Level Oakland Center
03:42PM 36.0822 -120.1789 129° Southeast 459 528 41,000  Level Oakland Center
03:43PM 35.9872 -120.0383 130° Southeast 438 504 41,000  Level Oakland Center
03:44PM 35.9064 -119.9156 129° Southeast 451 519 41,000  Level Oakland Center
03:45PM 35.8253 -119.7956 130° Southeast 454 522 41,000  Level Oakland Center
03:46PM 35.7439 -119.6744 130° Southeast 455 524 41,000  Level Oakland Center
03:47PM 35.6594 -119.5525 130° Southeast 460 529 41,000  Level Oakland Center
03:48PM 35.5775 -119.4314 130° Southeast 460 529 41,000 -480 Level Oakland Center
03:49PM 35.4933 -119.3097 130° Southeast 463 533 40,100 -900 Descending Oakland Center
03:50PM 35.4136 -119.1894 129° Southeast 459 528 39,200 -900 Descending Oakland Center
03:51PM 35.3978 -119.1650 128° Southeast 459 528 39,000 -900 Descending Los Angeles Center
03:52PM 35.3178 -119.0472 130° Southeast 453 521 38,100 -1,020 Descending Los Angeles Center
03:53PM 35.2197 -118.9058 130° Southeast 454 522 36,900 -1,500 Descending Los Angeles Center
03:54PM 35.1386 -118.7869 130° Southeast 454 522 35,100 -1,980 Descending Los Angeles Center
03:55PM 35.0564 -118.6703 131° Southeast 453 521 32,800 -2,220 Descending Los Angeles Center
03:56PM 34.9769 -118.5578 131° Southeast 444 511 30,500 -2,100 Descending Los Angeles Center
03:57PM 34.8914 -118.4364 131° Southeast 428 493 28,500 -2,160 Descending Los Angeles Center
03:58PM 34.8206 -118.3328 130° Southeast 411 473 26,100 -2,100 Descending Los Angeles Center
03:59PM 34.7486 -118.2331 131° Southeast 400 460 24,200 -1,380 Descending Los Angeles Center
04:00PM 34.6772 -118.1314 130° Southeast 393 452 23,300 -1,200 Descending Los Angeles Center
04:01PM 34.6033 -118.0367 133° Southeast 395 455 21,800 -1,860 Descending Los Angeles Center
04:02PM 34.5161 -117.9278 134° Southeast 378 435 19,500 -2,040 Descending Los Angeles Center
04:03PM 34.4661 -117.8264 121° Southeast 359 413 17,600 -1,920 Descending Los Angeles Center
04:04PM 34.4289 -117.7189 113° Southeast 350 403 15,600 -1,440 Descending Los Angeles Center
04:05PM 34.3950 -117.6181 112° Southeast 330 380 14,600 -1,080 Descending Los Angeles Center
04:06PM 34.3550 -117.5017 113° Southeast 328 377 13,400 -780 Descending Los Angeles Center
04:07PM 34.3194 -117.4006 113° Southeast 327 376 13,000 -300 Descending Los Angeles Center
04:08PM 34.2681 -117.3314 132° Southeast 291 335 12,800 -960 Descending Los Angeles Center
04:09PM 34.2022 -117.3319 180° South 238 274 11,100 -1,860 Descending Los Angeles Center
04:10PM 34.1403 -117.3458 191° South 227 261 9,000 -2,340 Descending Los Angeles Center
04:11PM 34.1000 -117.3500 185° South 217 250 7,600 -2,340 Descending Southern California TRACON
04:12PM 34.0500 -117.3833 209° Southwest 218 251 5,600 -1,920 Descending Southern California TRACON
04:13PM 34.0500 -117.4333 270° West 187 215 3,800 -1,620 Descending Southern California TRACON
04:14PM 34.0500 -117.5000 270° West 175 201 2,400 -1,200 Descending Southern California TRACON
04:15PM 34.0500 -117.5500 270° West 135 155 1,500 -600 Descending Southern California TRACON
04:17PM 34.0744 -117.6317 290° West 156 180 900 -360 Descending Los Angeles Center
04:19PM 34.0500 -117.6000 140° Southeast  Level FlightAware Approximate